createdAt,value
2023-12-17T00:02:05.835Z,14.40
2023-12-17T00:07:00.531Z,21.40
2023-12-17T00:09:27.547Z,22.95
2023-12-17T00:11:54.726Z,18.02
2023-12-17T00:14:21.697Z,22.55
2023-12-17T00:16:48.887Z,15.13
2023-12-17T00:19:16.135Z,23.75
2023-12-17T00:21:43.174Z,24.05
2023-12-17T00:24:10.058Z,18.02
2023-12-17T00:26:37.028Z,18.27
2023-12-17T00:29:03.914Z,23.70
2023-12-17T00:31:30.714Z,25.63
2023-12-17T00:33:57.991Z,23.75
2023-12-17T00:36:25.083Z,20.33
2023-12-17T00:41:22.148Z,25.23
2023-12-17T00:43:49.381Z,29.52
2023-12-17T00:46:16.378Z,26.48
2023-12-17T00:48:43.784Z,22.77
2023-12-17T00:51:12.816Z,30.77
2023-12-17T00:53:39.886Z,20.23
2023-12-17T00:56:07.231Z,27.05
2023-12-17T00:58:34.249Z,26.63
2023-12-17T01:03:30.188Z,21.95
2023-12-17T01:05:57.497Z,25.17
2023-12-17T01:08:24.728Z,25.20
2023-12-17T01:10:51.493Z,21.83
2023-12-17T01:13:18.423Z,21.45
2023-12-17T01:15:45.292Z,28.58
2023-12-17T01:20:39.329Z,22.30
2023-12-17T01:23:06.211Z,23.27
2023-12-17T01:25:33.159Z,19.10
2023-12-17T01:27:59.919Z,26.02
2023-12-17T01:30:26.891Z,25.67
2023-12-17T01:32:55.309Z,16.55
2023-12-17T01:35:22.154Z,19.60
2023-12-17T01:37:48.916Z,22.60
2023-12-17T01:40:15.772Z,17.42
2023-12-17T01:42:42.544Z,26.33
2023-12-17T01:45:10.204Z,21.42
2023-12-17T01:47:37.291Z,21.83
2023-12-17T01:50:04.988Z,19.33
2023-12-17T01:52:31.855Z,26.13
2023-12-17T01:54:58.849Z,23.90
2023-12-17T01:57:25.766Z,29.20
2023-12-17T01:59:52.800Z,23.38
2023-12-17T02:04:47.284Z,29.13
2023-12-17T02:07:14.251Z,20.88
2023-12-17T02:09:42.116Z,24.52
2023-12-17T02:12:09.137Z,21.60
2023-12-17T02:14:36.002Z,28.13
2023-12-17T02:17:02.768Z,21.35
2023-12-17T02:19:29.754Z,28.00
2023-12-17T02:24:23.475Z,22.65
2023-12-17T02:26:50.317Z,17.85
2023-12-17T02:29:17.659Z,22.48
2023-12-17T02:31:44.506Z,22.92
2023-12-17T02:34:11.429Z,27.55
2023-12-17T02:36:40.016Z,21.40
2023-12-17T02:39:09.715Z,20.52
2023-12-17T02:41:36.657Z,22.67
2023-12-17T02:44:03.552Z,21.63
2023-12-17T02:46:30.422Z,25.63
2023-12-17T02:48:57.423Z,25.40
2023-12-17T02:51:24.319Z,18.33
2023-12-17T02:53:51.261Z,20.50
2023-12-17T02:56:18.272Z,26.17
2023-12-17T03:01:11.876Z,19.38
2023-12-17T03:03:39.018Z,21.10
2023-12-17T03:06:06.181Z,20.85
2023-12-17T03:10:59.866Z,22.13
2023-12-17T03:13:27.085Z,25.33
2023-12-17T03:15:53.938Z,24.58
2023-12-17T03:18:21.050Z,23.55
2023-12-17T03:20:48.126Z,24.40
2023-12-17T03:23:15.135Z,21.60
2023-12-17T03:28:08.747Z,24.48
2023-12-17T03:30:35.889Z,27.80
2023-12-17T03:35:29.730Z,21.70
2023-12-17T03:37:56.601Z,21.75
2023-12-17T03:40:23.563Z,19.92
2023-12-17T03:42:50.456Z,27.70
2023-12-17T03:45:17.316Z,25.27
2023-12-17T03:47:48.838Z,20.75
2023-12-17T03:50:20.287Z,23.63
2023-12-17T03:52:48.679Z,21.88
2023-12-17T03:55:16.081Z,21.40
2023-12-17T03:57:43.016Z,20.98
2023-12-17T04:00:13.459Z,18.40
2023-12-17T04:02:40.439Z,19.90
2023-12-17T04:05:08.784Z,27.00
2023-12-17T04:07:36.082Z,20.48
2023-12-17T04:10:04.123Z,23.08
2023-12-17T04:12:31.067Z,25.77
2023-12-17T04:14:58.099Z,25.65
2023-12-17T04:19:51.741Z,25.48
2023-12-17T04:22:18.609Z,22.52
2023-12-17T04:24:45.448Z,24.08
2023-12-17T04:27:12.424Z,24.10
2023-12-17T04:32:06.253Z,19.17
2023-12-17T04:37:01.043Z,19.20
2023-12-17T04:39:28.231Z,25.25
2023-12-17T04:41:55.267Z,26.48
2023-12-17T04:46:49.107Z,24.27
2023-12-17T04:49:16.070Z,21.10
2023-12-17T04:54:10.097Z,24.10
2023-12-17T04:56:36.930Z,19.00
2023-12-17T04:59:04.121Z,22.40
2023-12-17T05:01:31.006Z,17.27
2023-12-17T05:03:57.902Z,20.88
2023-12-17T05:08:52.038Z,26.40
2023-12-17T05:11:18.947Z,25.17
2023-12-17T05:13:45.724Z,26.10
2023-12-17T05:16:12.633Z,28.60
2023-12-17T05:18:39.487Z,19.08
2023-12-17T05:21:07.685Z,23.52
2023-12-17T05:23:34.543Z,21.13
2023-12-17T05:26:01.408Z,19.48
2023-12-17T05:28:29.109Z,17.20
2023-12-17T05:30:56.132Z,20.83
2023-12-17T05:33:23.115Z,20.30
2023-12-17T05:38:17.372Z,23.48
2023-12-17T05:40:44.219Z,19.45
2023-12-17T05:43:11.111Z,20.60
2023-12-17T05:45:44.753Z,20.00
2023-12-17T05:48:18.021Z,26.27
2023-12-17T05:53:15.104Z,22.42
2023-12-17T05:55:42.358Z,29.85
2023-12-17T05:58:09.147Z,22.65
2023-12-17T06:00:35.962Z,25.33
2023-12-17T06:03:02.982Z,19.80
2023-12-17T06:07:56.704Z,19.60
2023-12-17T06:10:23.605Z,19.88
2023-12-17T06:12:50.457Z,26.48
2023-12-17T06:15:17.846Z,23.67
2023-12-17T06:17:45.233Z,22.67
2023-12-17T06:20:12.587Z,24.90
2023-12-17T06:22:39.450Z,25.73
2023-12-17T06:25:06.536Z,23.88
2023-12-17T06:27:35.885Z,25.25
2023-12-17T06:30:02.827Z,22.98
2023-12-17T06:32:29.692Z,26.17
2023-12-17T06:34:56.504Z,24.17
2023-12-17T06:37:23.344Z,26.63
2023-12-17T06:39:51.174Z,27.20
2023-12-17T06:42:18.037Z,25.73
2023-12-17T06:44:45.094Z,23.08
2023-12-17T06:49:52.988Z,28.50
2023-12-17T06:52:19.725Z,33.50
2023-12-17T06:54:46.768Z,31.25
2023-12-17T06:59:40.495Z,29.15
2023-12-17T07:02:07.331Z,33.00
2023-12-17T07:04:34.209Z,42.97
2023-12-17T07:07:01.090Z,36.42
2023-12-17T07:09:28.003Z,37.50
2023-12-17T07:11:54.875Z,38.42
2023-12-17T07:14:21.829Z,35.55
2023-12-17T07:16:49.127Z,45.72
2023-12-17T07:19:16.113Z,40.60
2023-12-17T07:24:09.909Z,37.35
2023-12-17T07:26:36.909Z,41.25
2023-12-17T07:29:03.706Z,45.53
2023-12-17T07:31:30.603Z,27.55
2023-12-17T07:33:57.594Z,61.40
2023-12-17T07:38:51.207Z,26.50
2023-12-17T07:41:18.017Z,33.17
2023-12-17T07:43:44.870Z,29.75
2023-12-17T07:46:12.121Z,29.50
2023-12-17T07:48:39.108Z,24.60
2023-12-17T07:51:06.510Z,30.08
2023-12-17T07:53:33.526Z,25.33
2023-12-17T07:56:01.120Z,21.88
2023-12-17T07:58:29.658Z,18.35
2023-12-17T08:00:56.495Z,21.73
2023-12-17T08:03:25.079Z,21.98
2023-12-17T08:05:54.155Z,17.77
2023-12-17T08:08:21.240Z,21.40
2023-12-17T08:10:48.231Z,20.60
2023-12-17T08:15:45.643Z,33.92
2023-12-17T08:20:39.353Z,19.95
2023-12-17T08:23:06.390Z,16.42
2023-12-17T08:30:28.700Z,17.77
2023-12-17T08:35:22.588Z,16.85
2023-12-17T08:37:49.703Z,20.10
2023-12-17T08:40:16.681Z,17.88
2023-12-17T08:45:13.290Z,23.15
2023-12-17T08:47:40.502Z,30.38
2023-12-17T08:50:08.359Z,30.55
2023-12-17T08:52:36.940Z,27.35
2023-12-17T08:55:04.354Z,32.28
2023-12-17T08:57:31.301Z,28.48
2023-12-17T08:59:58.316Z,35.00
2023-12-17T09:04:53.893Z,25.20
2023-12-17T09:07:20.943Z,32.78
2023-12-17T09:12:14.723Z,30.38
2023-12-17T09:14:42.438Z,35.42
2023-12-17T09:17:09.976Z,35.80
2023-12-17T09:19:37.091Z,34.33
2023-12-17T09:22:04.365Z,28.42
2023-12-17T09:24:31.444Z,25.77
2023-12-17T09:26:58.884Z,30.58
2023-12-17T09:29:25.721Z,27.90
2023-12-17T09:31:52.504Z,33.72
2023-12-17T09:34:19.384Z,32.55
2023-12-17T09:39:13.343Z,31.50
2023-12-17T09:41:42.907Z,32.67
2023-12-17T09:44:09.711Z,36.75
2023-12-17T09:46:37.090Z,44.60
2023-12-17T09:49:04.081Z,43.92
2023-12-17T09:51:37.290Z,42.50
2023-12-17T09:54:06.297Z,49.20
2023-12-17T09:56:33.700Z,49.03
2023-12-17T09:59:00.598Z,53.17
2023-12-17T10:01:28.874Z,55.78
2023-12-17T10:03:57.978Z,50.00
2023-12-17T10:06:24.871Z,57.28
2023-12-17T10:08:51.909Z,53.50
2023-12-17T10:11:19.803Z,54.03
2023-12-17T10:13:46.647Z,53.53
2023-12-17T10:16:13.546Z,41.28
2023-12-17T10:18:40.437Z,61.88
2023-12-17T10:21:09.194Z,64.95
2023-12-17T10:23:49.667Z,55.35
2023-12-17T10:26:17.299Z,56.75
2023-12-17T10:28:48.400Z,49.63
2023-12-17T10:31:17.824Z,52.20
2023-12-17T10:34:00.021Z,59.95
2023-12-17T10:36:27.104Z,58.22
2023-12-17T10:41:23.968Z,62.30
2023-12-17T10:43:52.566Z,63.38
2023-12-17T10:46:20.584Z,51.22
2023-12-17T10:48:48.984Z,57.25
2023-12-17T10:51:19.477Z,58.60
2023-12-17T10:53:46.519Z,54.03
2023-12-17T10:58:41.905Z,56.97
2023-12-17T11:01:10.200Z,53.13
2023-12-17T11:03:37.374Z,55.28
2023-12-17T11:06:05.949Z,50.55
2023-12-17T11:08:33.489Z,47.03
2023-12-17T11:11:00.853Z,49.33
2023-12-17T11:13:28.591Z,45.63
2023-12-17T11:15:56.015Z,43.67
2023-12-17T11:18:24.984Z,41.22
2023-12-17T11:20:54.090Z,42.85
2023-12-17T11:23:21.708Z,45.85
2023-12-17T11:25:48.791Z,41.20
2023-12-17T11:28:28.272Z,42.85
2023-12-17T11:30:56.741Z,44.83
2023-12-17T11:33:26.223Z,49.63
2023-12-17T11:35:53.224Z,56.13
2023-12-17T11:38:21.648Z,49.22
2023-12-17T11:40:48.618Z,48.42
2023-12-17T11:45:46.152Z,50.75
2023-12-17T11:48:15.880Z,45.63
2023-12-17T11:50:44.306Z,51.83
2023-12-17T11:53:15.420Z,52.97
2023-12-17T11:56:04.747Z,43.33
2023-12-17T11:58:31.582Z,40.55
2023-12-17T12:01:13.256Z,40.53
2023-12-17T12:03:42.105Z,34.17
2023-12-17T12:06:12.317Z,44.00
2023-12-17T12:08:47.424Z,37.75
2023-12-17T12:11:16.883Z,39.33
2023-12-17T12:13:46.453Z,39.80
2023-12-17T12:16:14.098Z,38.15
2023-12-17T12:18:41.338Z,36.45
2023-12-17T12:21:19.427Z,45.90
2023-12-17T12:23:51.379Z,36.53
2023-12-17T12:26:19.246Z,38.60
2023-12-17T12:28:51.648Z,43.30
2023-12-17T12:31:18.666Z,42.20
2023-12-17T12:36:19.770Z,39.25
2023-12-17T12:38:46.660Z,39.60
2023-12-17T12:41:13.566Z,41.67
2023-12-17T12:43:41.219Z,32.03
2023-12-17T12:46:08.755Z,43.55
2023-12-17T12:48:37.908Z,39.58
2023-12-17T12:51:05.510Z,36.90
2023-12-17T12:53:32.470Z,43.85
2023-12-17T12:55:59.458Z,33.33
2023-12-17T13:00:53.556Z,29.52
2023-12-17T13:03:21.543Z,29.92
2023-12-17T13:05:49.399Z,31.17
2023-12-17T13:10:42.973Z,28.40
2023-12-17T13:13:10.333Z,30.63
2023-12-17T13:15:37.238Z,36.08
2023-12-17T13:20:31.843Z,35.13
2023-12-17T13:22:59.021Z,32.25
2023-12-17T13:25:25.881Z,30.05
2023-12-17T13:27:52.939Z,29.40
2023-12-17T13:32:47.707Z,30.70
2023-12-17T13:35:14.808Z,30.50
2023-12-17T13:37:43.877Z,32.08
2023-12-17T13:40:14.056Z,28.98
2023-12-17T13:42:41.438Z,26.58
2023-12-17T13:45:09.295Z,25.98
2023-12-17T13:47:36.569Z,32.13
2023-12-17T13:50:03.939Z,31.48
2023-12-17T13:52:31.395Z,29.42
2023-12-17T13:54:58.207Z,24.52
2023-12-17T13:57:25.139Z,28.20
2023-12-17T14:02:21.748Z,19.98
2023-12-17T14:04:48.539Z,20.67
2023-12-17T14:07:15.349Z,19.77
2023-12-17T14:09:42.219Z,18.30
2023-12-17T14:12:09.210Z,18.95
2023-12-17T14:17:03.280Z,25.45
2023-12-17T14:19:35.927Z,19.77
2023-12-17T14:22:04.846Z,20.58
2023-12-17T14:24:32.189Z,23.55
2023-12-17T14:26:59.176Z,29.35
2023-12-17T14:29:26.033Z,27.58
2023-12-17T14:31:54.736Z,21.05
2023-12-17T14:34:21.827Z,19.77
2023-12-17T14:36:48.749Z,22.42
2023-12-17T14:39:15.664Z,19.08
2023-12-17T14:44:10.034Z,20.40
2023-12-17T14:46:36.930Z,22.67
2023-12-17T14:49:04.018Z,19.98
2023-12-17T14:51:32.573Z,20.08
2023-12-17T14:54:00.736Z,19.10
2023-12-17T14:56:27.651Z,21.77
2023-12-17T14:58:58.036Z,21.52
2023-12-17T15:01:31.799Z,18.30
2023-12-17T15:04:02.284Z,39.25
2023-12-17T15:08:57.024Z,21.48
2023-12-17T15:11:24.004Z,23.17
2023-12-17T15:13:50.984Z,19.33
2023-12-17T15:16:17.781Z,22.35
2023-12-17T15:18:45.098Z,20.33
2023-12-17T15:21:16.780Z,25.10
2023-12-17T15:23:43.742Z,22.45
2023-12-17T15:26:10.679Z,30.17
2023-12-17T15:28:38.200Z,23.48
2023-12-17T15:31:05.477Z,23.33
2023-12-17T15:33:33.171Z,24.48
2023-12-17T15:36:00.654Z,28.63
2023-12-17T15:38:27.714Z,25.30
2023-12-17T15:43:21.415Z,37.80
2023-12-17T15:45:48.445Z,30.80
2023-12-17T15:48:15.422Z,31.60
2023-12-17T15:53:12.688Z,34.88
2023-12-17T15:55:39.497Z,38.38
2023-12-17T15:58:06.274Z,33.80
2023-12-17T16:03:02.098Z,35.78
2023-12-17T16:05:29.696Z,33.65
2023-12-17T16:07:57.882Z,36.97
2023-12-17T16:10:26.052Z,35.40
2023-12-17T16:12:53.368Z,34.85
2023-12-17T16:15:21.762Z,36.85
2023-12-17T16:17:48.771Z,35.92
2023-12-17T16:20:18.020Z,34.13
2023-12-17T16:22:47.074Z,35.75
2023-12-17T16:25:14.141Z,37.85
2023-12-17T16:27:41.114Z,37.00
2023-12-17T16:30:08.684Z,40.20
2023-12-17T16:32:39.560Z,40.88
2023-12-17T16:35:10.098Z,32.75
2023-12-17T16:37:42.763Z,34.60
2023-12-17T16:40:14.294Z,37.67
2023-12-17T16:42:42.733Z,43.45
2023-12-17T16:45:11.931Z,43.03
2023-12-17T16:47:39.050Z,42.17
2023-12-17T16:50:08.685Z,42.50
2023-12-17T16:52:37.950Z,47.78
2023-12-17T16:55:05.130Z,42.28
2023-12-17T16:59:59.374Z,64.00
2023-12-17T17:04:53.735Z,84.72
2023-12-17T17:07:20.706Z,46.03
2023-12-17T17:09:50.081Z,73.10
2023-12-17T17:12:17.511Z,81.65
2023-12-17T17:14:45.248Z,50.25
2023-12-17T17:17:12.128Z,95.00
2023-12-17T17:19:39.296Z,88.93
2023-12-17T17:22:08.636Z,70.15
2023-12-17T17:24:35.785Z,75.63
2023-12-17T17:27:05.739Z,60.33
2023-12-17T17:29:32.655Z,53.42
2023-12-17T17:34:26.998Z,99.63
2023-12-17T17:39:22.615Z,71.28
2023-12-17T17:41:51.594Z,58.05
2023-12-17T17:44:18.666Z,169.93
2023-12-17T17:46:46.701Z,46.05
2023-12-17T17:49:14.898Z,61.00
2023-12-17T17:51:42.801Z,67.38
2023-12-17T17:54:12.101Z,62.47
2023-12-17T17:56:39.519Z,73.63
2023-12-17T17:59:06.471Z,43.80
2023-12-17T18:01:36.787Z,58.65
2023-12-17T18:04:04.169Z,80.60
2023-12-17T18:06:33.610Z,59.53
2023-12-17T18:09:00.543Z,57.92
2023-12-17T18:11:27.527Z,77.07
2023-12-17T18:13:55.585Z,56.78
2023-12-17T18:16:23.362Z,66.07
2023-12-17T18:18:53.689Z,62.38
2023-12-17T18:21:23.346Z,55.58
2023-12-17T18:23:50.682Z,50.53
2023-12-17T18:28:48.067Z,93.95
2023-12-17T18:33:44.580Z,85.20
2023-12-17T18:36:11.723Z,58.13
2023-12-17T18:38:45.907Z,58.50
2023-12-17T18:41:14.030Z,92.25
2023-12-17T18:43:41.499Z,76.35
2023-12-17T18:46:15.877Z,77.97
2023-12-17T18:48:43.657Z,108.80
2023-12-17T18:51:11.000Z,54.97
2023-12-17T18:53:39.514Z,52.80
2023-12-17T18:56:06.853Z,141.15
2023-12-17T18:58:34.001Z,87.65
2023-12-17T19:01:01.049Z,48.67
2023-12-17T19:05:54.745Z,56.08
2023-12-17T19:08:21.748Z,56.65
2023-12-17T19:10:48.666Z,52.40
2023-12-17T19:13:16.288Z,45.08
2023-12-17T19:15:44.282Z,129.65
2023-12-17T19:18:11.889Z,61.05
2023-12-17T19:20:40.434Z,48.50
2023-12-17T19:23:08.032Z,62.22
2023-12-17T19:25:34.954Z,72.68
2023-12-17T19:28:01.860Z,43.10
2023-12-17T19:30:29.231Z,138.00
2023-12-17T19:32:56.961Z,47.33
2023-12-17T19:35:24.141Z,50.97
2023-12-17T19:40:17.952Z,57.92
2023-12-17T19:42:45.670Z,56.88
2023-12-17T19:45:14.635Z,67.18
2023-12-17T19:47:42.119Z,80.13
2023-12-17T19:50:09.150Z,57.38
2023-12-17T19:55:02.802Z,43.95
2023-12-17T19:57:29.729Z,45.40
2023-12-17T19:59:56.722Z,41.90
2023-12-17T20:04:50.423Z,50.78
2023-12-17T20:07:21.155Z,39.53
2023-12-17T20:09:48.309Z,38.65
2023-12-17T20:14:41.900Z,52.30
2023-12-17T20:17:08.703Z,48.10
2023-12-17T20:19:35.691Z,47.67
2023-12-17T20:24:29.713Z,47.50
2023-12-17T20:26:56.657Z,39.90
2023-12-17T20:29:23.457Z,36.30
2023-12-17T20:31:52.291Z,35.25
2023-12-17T20:34:21.982Z,39.00
2023-12-17T20:36:49.315Z,73.47
2023-12-17T20:39:16.163Z,34.03
2023-12-17T20:41:43.203Z,44.50
2023-12-17T20:46:36.836Z,39.85
2023-12-17T20:49:03.990Z,49.72
2023-12-17T20:53:57.901Z,51.55
2023-12-17T20:56:24.829Z,58.90
2023-12-17T20:58:53.271Z,61.65
2023-12-17T21:01:20.668Z,57.50
2023-12-17T21:03:47.908Z,36.55
2023-12-17T21:06:23.358Z,45.17
2023-12-17T21:08:50.317Z,39.63
2023-12-17T21:11:17.434Z,41.67
2023-12-17T21:13:45.710Z,44.22
2023-12-17T21:16:13.430Z,37.55
2023-12-17T21:18:40.672Z,45.58
2023-12-17T21:21:08.896Z,42.90
2023-12-17T21:23:35.944Z,52.03
2023-12-17T21:26:03.948Z,43.45
2023-12-17T21:28:31.062Z,48.47
2023-12-17T21:33:25.359Z,45.25
2023-12-17T21:35:52.521Z,47.38
2023-12-17T21:40:48.368Z,52.28
2023-12-17T21:43:15.216Z,56.60
2023-12-17T21:45:42.296Z,42.85
2023-12-17T21:48:09.585Z,41.20
2023-12-17T21:50:36.669Z,44.80
2023-12-17T21:53:03.887Z,44.45
2023-12-17T21:55:30.845Z,49.65
2023-12-17T21:57:57.954Z,35.70
2023-12-17T22:02:52.440Z,45.65
2023-12-17T22:07:47.816Z,42.10
2023-12-17T22:10:15.965Z,38.97
2023-12-17T22:12:46.026Z,36.70
2023-12-17T22:15:13.109Z,36.95
2023-12-17T22:20:07.960Z,35.80
2023-12-17T22:22:34.870Z,46.00
2023-12-17T22:25:02.360Z,62.65
2023-12-17T22:27:30.525Z,40.15
2023-12-17T22:30:00.895Z,40.25
2023-12-17T22:32:27.757Z,45.60
2023-12-17T22:34:54.816Z,41.78
2023-12-17T22:39:48.732Z,52.30
2023-12-17T22:42:15.636Z,46.45
2023-12-17T22:44:45.006Z,41.28
2023-12-17T22:47:11.939Z,45.15
2023-12-17T22:49:38.968Z,45.10
2023-12-17T22:54:36.320Z,37.40
2023-12-17T22:57:03.467Z,61.42
2023-12-17T23:01:57.345Z,61.53
2023-12-17T23:04:24.173Z,54.10
2023-12-17T23:06:51.029Z,55.80
2023-12-17T23:09:18.187Z,46.05
2023-12-17T23:14:11.888Z,43.72
2023-12-17T23:16:38.789Z,48.08
2023-12-17T23:19:05.803Z,49.95
2023-12-17T23:23:59.660Z,46.83
2023-12-17T23:28:53.576Z,60.30
2023-12-17T23:33:47.468Z,82.82
2023-12-17T23:38:41.483Z,81.88
2023-12-17T23:41:08.800Z,62.08
2023-12-17T23:43:40.180Z,77.40
2023-12-17T23:46:07.398Z,43.92
2023-12-17T23:48:34.506Z,49.55
2023-12-17T23:51:01.400Z,47.10
2023-12-17T23:53:28.415Z,30.52
2023-12-17T23:55:55.205Z,36.55
2023-12-17T23:58:22.054Z,67.13
